Search for airport 
image banner adimage banner adimage banner ad
image banner ad

CL84 - Ahlem Farms

Located in Hilmar, United States

ICAO - CL84, IATA -

Data provided by Airmate  

General information

Coordinates: N37°23'18" W120°55'39"
Elevation is 73 feet MSL.
Magnetic variation is 16° East
View others Airports in California

Operational data

Special qualification required
Current time UTC:
Current local time:
METAR: KMOD 292053Z 33008KT 10SM CLR 36/12 A2983 RMK AO2 SLP101 T03560122 58019
TAF: KMOD 291812Z 2918/3018 33008KT P6SM BKN200 FM300700 01005KT P6SM SCT200 FM301200 34005KT P6SM SCT150
View NOTAMs / SUP AIP / TFR affecting this airport [VIEW]
Communications frequencies: [VIEW]

Runways:

RWY identifierQFULength (ft)Width (ft)SurfaceLDA (ft)
08261740ASPH
26261740ASPH

Airport contact information

Address: Hilmar United States

Satellite view of CL84